Time;durP1;ratioP1;P1;durP2;ratioP2;P2;SDS_P1;SDS_P2;PMS_P1;PMS_P2;Temp;Humidity;BMP_temperature;BMP_pressure;BME280_temperature;BME280_humidity;BME280_pressure;Samples;Min_cycle;Max_cycle;Signal;HPM_P1;HPM_P2
2022/05/28 00:00:07;;;;;;;;;;;;;;;20.60;58.38;100481.78;7405136;19;1293;-61
2022/05/28 00:02:36;;;;;;;;;;;;;;;20.56;58.31;100481.22;7401873;19;1939;-61
2022/05/28 00:05:04;;;;;;;;;;;;;;;20.54;58.61;100485.06;7403497;19;1586;-64
2022/05/28 00:07:33;;;;;;;;;;;;;;;20.59;58.33;100477.41;7403884;19;1638;-62
2022/05/28 00:10:01;;;;;;;;;;;;;;;20.63;58.51;100481.47;7403233;19;1780;-58
2022/05/28 00:12:31;;;;;;;;;;;;;;;20.62;58.49;100471.75;7403361;19;1870;-59
2022/05/28 00:15:01;;;;;;;;;;;;;;;20.56;58.79;100470.47;7403040;19;1417;-61
2022/05/28 00:17:30;;;;;;;;;;;;;;;20.60;58.92;100463.81;7404722;19;1536;-64
2022/05/28 00:19:58;;;;;;;;;;;;;;;20.56;58.78;100467.78;7402392;19;1598;-61
2022/05/28 00:22:26;;;;;;;;;;;;;;;20.50;58.43;100457.66;7404890;19;1524;-61
2022/05/28 00:24:55;;;;;;;;;;;;;;;20.43;58.84;100448.50;7402554;19;1721;-60
2022/05/28 00:27:23;;;;;;;;;;;;;;;20.52;58.41;100463.72;7401505;19;1559;-63
2022/05/28 00:29:51;;;;;;;;;;;;;;;20.48;58.73;100432.78;7408808;19;1627;-61
2022/05/28 00:32:23;;;;;;;;;;;;;;;20.36;58.82;100439.38;7410744;19;1858;-63
2022/05/28 00:34:52;;;;;;;;;;;;;;;20.29;59.07;100443.66;7409612;19;1601;-61
2022/05/28 00:37:20;;;;;;;;;;;;;;;20.36;58.91;100434.84;7412622;19;1225;-60
2022/05/28 00:39:48;;;;;;;;;;;;;;;20.41;58.92;100437.94;7410987;19;1669;-61
2022/05/28 00:42:17;;;;;;;;;;;;;;;20.43;58.45;100429.72;7411520;19;1559;-61
2022/05/28 00:44:45;;;;;;;;;;;;;;;20.46;58.25;100445.53;7410367;19;1261;-63
2022/05/28 00:47:13;;;;;;;;;;;;;;;20.43;58.54;100429.72;7409798;19;1583;-60
2022/05/28 00:49:45;;;;;;;;;;;;;;;20.61;58.32;100433.28;7410917;19;1587;-64
2022/05/28 00:52:13;;;;;;;;;;;;;;;20.64;58.18;100432.97;7410554;19;1865;-64
2022/05/28 00:54:44;;;;;;;;;;;;;;;20.72;58.24;100429.50;7409431;19;1737;-60
2022/05/28 00:57:14;;;;;;;;;;;;;;;20.71;57.97;100451.16;7410961;19;1583;-60
2022/05/28 00:59:45;;;;;;;;;;;;;;;20.65;58.17;100428.44;7411065;19;1606;-61
2022/05/28 01:02:17;;;;;;;;;;;;;;;20.66;57.95;100424.75;7408361;19;1490;-61
2022/05/28 01:04:52;;;;;;;;;;;;;;;20.69;57.87;100426.28;7410044;19;1764;-60
2022/05/28 01:07:27;;;;;;;;;;;;;;;20.71;58.09;100418.91;7409503;19;1682;-60
2022/05/28 01:09:59;;;;;;;;;;;;;;;20.75;57.83;100428.34;7408687;19;1638;-61
2022/05/28 01:12:34;;;;;;;;;;;;;;;20.74;58.61;100424.00;7409424;19;1863;-64
2022/05/28 01:15:05;;;;;;;;;;;;;;;20.68;58.10;100433.50;7410711;19;1307;-64
2022/05/28 01:17:36;;;;;;;;;;;;;;;20.76;57.96;100447.00;7408668;19;1650;-60
2022/05/28 01:20:11;;;;;;;;;;;;;;;20.73;57.91;100436.59;7409264;19;1590;-64
2022/05/28 01:22:46;;;;;;;;;;;;;;;20.66;58.18;100430.97;7409428;19;1535;-64
2022/05/28 01:25:19;;;;;;;;;;;;;;;20.65;58.11;100428.44;7409381;19;1773;-61
2022/05/28 01:27:51;;;;;;;;;;;;;;;20.62;58.57;100432.28;7408233;19;1650;-64
2022/05/28 01:30:20;;;;;;;;;;;;;;;20.64;58.09;100432.97;7408780;19;1277;-61
2022/05/28 01:32:52;;;;;;;;;;;;;;;20.58;58.44;100441.59;7408919;19;1849;-60
2022/05/28 01:35:22;;;;;;;;;;;;;;;20.57;58.24;100442.63;7408919;19;1512;-63
2022/05/28 01:37:51;;;;;;;;;;;;;;;20.55;58.38;100433.88;7409620;19;1324;-66
2022/05/28 01:40:21;;;;;;;;;;;;;;;20.58;57.96;100444.31;7408629;19;1547;-64
2022/05/28 01:42:54;;;;;;;;;;;;;;;20.59;57.89;100443.34;7409226;19;1666;-61
2022/05/28 01:45:25;;;;;;;;;;;;;;;20.61;58.14;100456.59;7409339;19;1599;-64
2022/05/28 01:47:55;;;;;;;;;;;;;;;20.55;58.39;100455.38;7408349;19;1341;-64
2022/05/28 01:50:25;;;;;;;;;;;;;;;20.56;57.98;100450.84;7408141;19;1496;-61
2022/05/28 01:52:55;;;;;;;;;;;;;;;20.55;57.95;100450.00;7408172;19;1849;-64
2022/05/28 01:55:25;;;;;;;;;;;;;;;20.58;58.03;100440.78;7408706;19;1769;-60
2022/05/28 01:57:56;;;;;;;;;;;;;;;20.61;57.59;100432.41;7407965;19;1399;-64
2022/05/28 02:00:25;;;;;;;;;;;;;;;20.63;57.77;100433.13;7407395;19;1339;-61
2022/05/28 02:02:54;;;;;;;;;;;;;;;20.64;57.55;100438.34;7399083;19;1929;-60
2022/05/28 02:05:22;;;;;;;;;;;;;;;20.63;57.43;100433.13;7404863;19;1790;-60
2022/05/28 02:07:51;;;;;;;;;;;;;;;20.63;57.55;100430.44;7405531;19;1760;-60
2022/05/28 02:10:21;;;;;;;;;;;;;;;20.63;57.46;100428.59;7406629;19;1355;-60
2022/05/28 02:12:55;;;;;;;;;;;;;;;20.64;57.62;100432.13;7406136;19;1846;-60
2022/05/28 02:15:35;;;;;;;;;;;;;;;20.62;57.38;100429.59;7407597;19;1504;-61
2022/05/28 02:18:08;;;;;;;;;;;;;;;20.59;57.46;100429.91;7408268;19;1410;-60
2022/05/28 02:20:43;;;;;;;;;;;;;;;20.54;58.32;100437.53;7407021;19;1540;-60
2022/05/28 02:23:14;;;;;;;;;;;;;;;20.49;58.18;100439.84;7408806;19;1618;-60
2022/05/28 02:25:44;;;;;;;;;;;;;;;20.51;58.12;100427.09;7408240;19;1532;-59
2022/05/28 02:28:14;;;;;;;;;;;;;;;20.43;57.91;100433.25;7406852;19;1768;-60
2022/05/28 02:30:51;;;;;;;;;;;;;;;20.42;57.64;100434.25;7407275;19;1493;-60
2022/05/28 02:33:20;;;;;;;;;;;;;;;20.37;58.04;100424.94;7406894;19;1856;-60
2022/05/28 02:35:49;;;;;;;;;;;;;;;20.40;57.85;100435.41;7406506;19;1644;-60
2022/05/28 02:38:17;;;;;;;;;;;;;;;20.36;58.13;100428.66;7406301;19;1284;-60
2022/05/28 02:40:46;;;;;;;;;;;;;;;20.37;57.85;100419.56;7406102;19;1257;-60
2022/05/28 02:43:14;;;;;;;;;;;;;;;20.37;57.85;100420.44;7405579;19;1601;-60
2022/05/28 02:45:43;;;;;;;;;;;;;;;20.38;57.87;100415.91;7406979;19;1341;-60
2022/05/28 02:48:14;;;;;;;;;;;;;;;20.39;57.54;100417.59;7406497;19;1671;-60
2022/05/28 02:50:42;;;;;;;;;;;;;;;20.44;57.28;100415.28;7404265;19;1435;-61
2022/05/28 02:53:13;;;;;;;;;;;;;;;20.43;57.58;100435.06;7404835;19;1845;-60
2022/05/28 02:55:42;;;;;;;;;;;;;;;20.44;58.24;100436.78;7403294;19;1554;-60
2022/05/28 02:58:10;;;;;;;;;;;;;;;20.39;58.04;100429.19;7405836;19;1535;-59
2022/05/28 03:00:39;;;;;;;;;;;;;;;20.42;58.22;100444.97;7405613;19;1431;-60
2022/05/28 03:03:07;;;;;;;;;;;;;;;20.43;58.21;100435.06;7402647;19;1400;-60
2022/05/28 03:05:38;;;;;;;;;;;;;;;20.42;57.84;100433.41;7405566;19;1340;-60
2022/05/28 03:08:06;;;;;;;;;;;;;;;20.41;57.70;100443.31;7405373;19;1265;-60
2022/05/28 03:10:35;;;;;;;;;;;;;;;20.48;57.91;100458.81;7405787;19;1417;-60
2022/05/28 03:13:03;;;;;;;;;;;;;;;20.48;57.74;100454.28;7403854;19;1842;-59
2022/05/28 03:15:32;;;;;;;;;;;;;;;20.48;58.25;100456.97;7405782;19;1368;-60
2022/05/28 03:18:00;;;;;;;;;;;;;;;20.54;57.55;100467.09;7405947;19;1328;-60
2022/05/28 03:20:28;;;;;;;;;;;;;;;20.53;57.71;100454.69;7405081;19;1520;-60
2022/05/28 03:22:59;;;;;;;;;;;;;;;20.52;57.69;100455.66;7405216;19;1169;-60
2022/05/28 03:25:28;;;;;;;;;;;;;;;20.57;57.77;100469.50;7405512;19;1350;-60
2022/05/28 03:27:56;;;;;;;;;;;;;;;20.57;57.53;100474.88;7403677;19;1310;-60
2022/05/28 03:30:24;;;;;;;;;;;;;;;20.54;57.85;100464.41;7402817;19;1277;-60
2022/05/28 03:32:53;;;;;;;;;;;;;;;20.60;57.52;100479.94;7402977;19;1849;-60
2022/05/28 03:35:21;;;;;;;;;;;;;;;20.58;57.45;100467.63;7405189;19;1355;-60
2022/05/28 03:37:50;;;;;;;;;;;;;;;20.59;57.30;100472.03;7405662;19;1360;-60
2022/05/28 03:40:21;;;;;;;;;;;;;;;20.62;57.47;100477.94;7404392;19;1475;-60
2022/05/28 03:42:49;;;;;;;;;;;;;;;20.62;57.44;100483.31;7404639;19;1563;-60
2022/05/28 03:45:18;;;;;;;;;;;;;;;20.64;57.59;100475.94;7404625;19;1598;-60
2022/05/28 03:47:46;;;;;;;;;;;;;;;20.65;57.47;100495.59;7404001;19;1579;-60
2022/05/28 03:50:15;;;;;;;;;;;;;;;20.70;57.41;100473.66;7401626;19;1348;-60
2022/05/28 03:52:43;;;;;;;;;;;;;;;20.70;57.79;100479.88;7401413;19;1861;-60
2022/05/28 03:55:13;;;;;;;;;;;;;;;20.70;57.88;100468.28;7403880;19;1784;-60
2022/05/28 03:57:46;;;;;;;;;;;;;;;20.69;58.11;100467.44;7403766;19;1532;-60
2022/05/28 04:00:15;;;;;;;;;;;;;;;20.70;58.05;100481.72;7404031;19;1417;-61
2022/05/28 04:02:43;;;;;;;;;;;;;;;20.63;57.62;100484.16;7402698;19;1505;-60
2022/05/28 04:05:12;;;;;;;;;;;;;;;20.67;58.22;100469.41;7403914;19;1544;-60
2022/05/28 04:07:41;;;;;;;;;;;;;;;20.81;57.91;100484.16;7404266;19;1547;-60
2022/05/28 04:10:10;;;;;;;;;;;;;;;20.79;57.77;100488.84;7403513;19;1638;-60
2022/05/28 04:12:39;;;;;;;;;;;;;;;20.78;57.94;100484.47;7404213;19;1853;-60
2022/05/28 04:15:11;;;;;;;;;;;;;;;20.74;58.16;100496.53;7402503;19;1219;-60
2022/05/28 04:17:39;;;;;;;;;;;;;;;20.66;58.58;100483.88;7404244;19;1528;-60
2022/05/28 04:20:10;;;;;;;;;;;;;;;20.77;58.26;100497.09;7402511;19;1338;-60
2022/05/28 04:22:38;;;;;;;;;;;;;;;20.89;58.00;100503.06;7403585;19;1622;-60
2022/05/28 04:25:07;;;;;;;;;;;;;;;20.88;58.14;100498.69;7403358;19;1394;-60
2022/05/28 04:27:35;;;;;;;;;;;;;;;20.84;58.26;100491.94;7403278;19;1539;-60
2022/05/28 04:30:05;;;;;;;;;;;;;;;20.95;58.31;100490.84;7403348;19;1511;-60
2022/05/28 04:32:36;;;;;;;;;;;;;;;21.01;58.11;100499.13;7403458;19;1638;-60
2022/05/28 04:35:04;;;;;;;;;;;;;;;21.02;58.10;100503.50;7402336;19;1591;-60
2022/05/28 04:37:33;;;;;;;;;;;;;;;20.97;57.94;100508.50;7403727;19;1034;-60
2022/05/28 04:40:01;;;;;;;;;;;;;;;20.99;57.78;100498.44;7403075;19;1749;-60
2022/05/28 04:42:30;;;;;;;;;;;;;;;21.03;58.36;100491.75;7402670;19;1544;-60
2022/05/28 04:44:59;;;;;;;;;;;;;;;21.14;57.97;100501.41;7403396;19;1315;-60
2022/05/28 04:47:27;;;;;;;;;;;;;;;21.08;58.07;100515.47;7402863;19;1609;-60
2022/05/28 04:49:58;;;;;;;;;;;;;;;21.04;58.43;100506.88;7403146;19;1527;-60
2022/05/28 04:52:27;;;;;;;;;;;;;;;21.09;57.90;100510.94;7402874;19;1573;-60
2022/05/28 04:54:55;;;;;;;;;;;;;;;21.15;58.27;100513.00;7399952;19;1842;-60
2022/05/28 04:57:23;;;;;;;;;;;;;;;21.07;58.42;100511.13;7402800;19;1254;-60
2022/05/28 04:59:52;;;;;;;;;;;;;;;21.14;58.27;100516.72;7402979;19;1540;-60
2022/05/28 05:02:20;;;;;;;;;;;;;;;21.02;58.64;100522.31;7401139;19;1418;-61
2022/05/28 05:04:58;;;;;;;;;;;;;;;20.99;58.85;100517.28;7399209;19;1524;-60
2022/05/28 05:07:27;;;;;;;;;;;;;;;21.23;58.26;100523.84;7401911;19;1484;-60
2022/05/28 05:09:55;;;;;;;;;;;;;;;21.06;59.08;100529.06;7402517;19;1554;-59
2022/05/28 05:12:24;;;;;;;;;;;;;;;21.03;59.39;100529.41;7402181;19;1556;-60
2022/05/28 05:14:52;;;;;;;;;;;;;;;21.24;58.69;100537.13;7400190;19;1862;-60
2022/05/28 05:17:20;;;;;;;;;;;;;;;21.29;58.47;100528.59;7409111;19;1324;-61
2022/05/28 05:19:49;;;;;;;;;;;;;;;21.38;58.51;100506.13;7409491;19;1396;-61
2022/05/28 05:22:20;;;;;;;;;;;;;;;21.36;58.94;100516.19;7410332;19;1543;-60
2022/05/28 05:24:48;;;;;;;;;;;;;;;21.38;58.98;100521.44;7408746;19;1321;-60
2022/05/28 05:27:17;;;;;;;;;;;;;;;21.39;59.39;100534.72;7408857;19;1594;-64
2022/05/28 05:29:45;;;;;;;;;;;;;;;21.41;59.46;100532.72;7408158;19;1394;-63
2022/05/28 05:32:14;;;;;;;;;;;;;;;21.38;59.89;100516.88;7408523;19;1351;-59
2022/05/28 05:34:45;;;;;;;;;;;;;;;21.40;60.04;100520.25;7405944;19;1859;-59
2022/05/28 05:37:14;;;;;;;;;;;;;;;21.40;60.35;100527.50;7410320;19;1279;-60
2022/05/28 05:39:45;;;;;;;;;;;;;;;21.41;61.36;100516.59;7407857;19;1749;-60
2022/05/28 05:42:13;;;;;;;;;;;;;;;21.47;60.78;100516.97;7407620;19;1253;-60
2022/05/28 05:44:42;;;;;;;;;;;;;;;21.54;61.27;100510.81;7408109;19;1294;-60
2022/05/28 05:47:10;;;;;;;;;;;;;;;21.52;62.14;100496.66;7406539;19;1576;-60
2022/05/28 05:49:39;;;;;;;;;;;;;;;21.57;61.43;100501.59;7408581;19;1242;-65
2022/05/28 05:52:08;;;;;;;;;;;;;;;21.47;61.43;100500.81;7409012;19;1228;-65
2022/05/28 05:54:36;;;;;;;;;;;;;;;21.56;60.71;100513.34;7406746;19;1851;-66
2022/05/28 05:57:08;;;;;;;;;;;;;;;21.63;60.87;100514.41;7407169;19;1344;-66
2022/05/28 05:59:37;;;;;;;;;;;;;;;21.53;61.80;100509.13;7408599;19;1260;-60
2022/05/28 06:02:05;;;;;;;;;;;;;;;21.29;61.69;100499.03;7407019;19;1744;-61
2022/05/28 06:04:34;;;;;;;;;;;;;;;21.25;61.72;100490.41;7408655;19;1626;-60
2022/05/28 06:07:02;;;;;;;;;;;;;;;21.50;60.85;100493.28;7409009;19;1605;-60
2022/05/28 06:09:30;;;;;;;;;;;;;;;21.57;61.12;100493.53;7406411;19;1365;-60
2022/05/28 06:11:59;;;;;;;;;;;;;;;21.42;61.36;100475.22;7406951;19;1541;-60
2022/05/28 06:14:30;;;;;;;;;;;;;;;21.48;61.33;100500.69;7401341;19;1858;-61
2022/05/28 06:16:58;;;;;;;;;;;;;;;21.42;61.53;100495.91;7406230;19;1352;-60
2022/05/28 06:19:26;;;;;;;;;;;;;;;21.39;61.83;100497.06;7407275;19;1467;-60
2022/05/28 06:21:55;;;;;;;;;;;;;;;21.38;61.83;100484.59;7406618;19;1225;-61
2022/05/28 06:24:23;;;;;;;;;;;;;;;21.50;62.09;100493.28;7404616;19;1331;-60
2022/05/28 06:26:52;;;;;;;;;;;;;;;21.44;62.22;100505.53;7403544;19;1532;-60
2022/05/28 06:29:20;;;;;;;;;;;;;;;21.42;63.00;100498.59;7407625;19;1289;-63
2022/05/28 06:31:51;;;;;;;;;;;;;;;21.48;62.51;100502.53;7406123;19;1618;-60
2022/05/28 06:34:19;;;;;;;;;;;;;;;21.47;62.59;100499.00;7403981;19;1858;-61
2022/05/28 06:36:48;;;;;;;;;;;;;;;21.31;63.11;100498.84;7406686;19;1373;-60
2022/05/28 06:39:16;;;;;;;;;;;;;;;21.44;62.32;100505.53;7405538;19;1306;-60
2022/05/28 06:41:45;;;;;;;;;;;;;;;21.36;62.48;100497.38;7405630;19;1300;-59
2022/05/28 06:44:13;;;;;;;;;;;;;;;21.41;62.85;100502.28;7405556;19;1314;-60
2022/05/28 06:46:41;;;;;;;;;;;;;;;21.45;62.48;100495.63;7406585;19;1530;-60
2022/05/28 06:49:13;;;;;;;;;;;;;;;21.46;63.15;100491.91;7406139;19;1354;-73
2022/05/28 06:51:41;;;;;;;;;;;;;;;21.63;62.18;100488.34;7403066;19;1484;-70
2022/05/28 06:54:09;;;;;;;;;;;;;;;21.60;62.75;100467.13;7404115;19;1864;-60
2022/05/28 06:56:38;;;;;;;;;;;;;;;21.69;63.19;100465.31;7407542;19;1622;-62
2022/05/28 06:59:06;;;;;;;;;;;;;;;21.61;62.77;100468.81;7405917;19;1535;-67
2022/05/28 07:01:34;;;;;;;;;;;;;;;21.68;62.67;100458.25;7404161;19;1543;-60
2022/05/28 07:04:03;;;;;;;;;;;;;;;21.71;62.96;100457.94;7406117;19;1299;-62
2022/05/28 07:06:34;;;;;;;;;;;;;;;21.76;63.46;100443.97;7407305;19;1603;-60
2022/05/28 07:09:05;;;;;;;;;;;;;;;21.75;62.78;100462.00;7404993;19;1630;-60
2022/05/28 07:11:33;;;;;;;;;;;;;;;21.75;62.04;100450.38;7407022;19;1563;-59
2022/05/28 07:14:02;;;;;;;;;;;;;;;21.57;61.97;100467.44;7405938;19;1866;-59
2022/05/28 07:16:30;;;;;;;;;;;;;;;21.58;61.97;100465.59;7406062;19;1611;-59
2022/05/28 07:18:58;;;;;;;;;;;;;;;21.69;62.43;100451.88;7402411;19;1305;-60
2022/05/28 07:21:27;;;;;;;;;;;;;;;21.60;61.92;100442.91;7405570;19;1256;-60
2022/05/28 07:23:58;;;;;;;;;;;;;;;21.66;62.31;100444.09;7403597;19;1399;-60
2022/05/28 07:26:26;;;;;;;;;;;;;;;21.64;62.72;100446.13;7401130;19;1563;-61
2022/05/28 07:28:55;;;;;;;;;;;;;;;21.55;62.20;100422.88;7404905;19;1361;-60
2022/05/28 07:31:24;;;;;;;;;;;;;;;21.49;61.91;100424.34;7405002;19;1368;-62
2022/05/28 07:33:52;;;;;;;;;;;;;;;21.52;62.02;100429.41;7406370;19;1853;-57
2022/05/28 07:36:22;;;;;;;;;;;;;;;21.47;61.67;100412.06;7406532;19;1043;-60
2022/05/28 07:38:51;;;;;;;;;;;;;;;21.50;61.52;100417.13;7402877;19;1382;-63
2022/05/28 07:41:23;;;;;;;;;;;;;;;21.60;60.71;100412.47;7404282;19;1637;-63
2022/05/28 07:43:53;;;;;;;;;;;;;;;21.62;60.90;100399.69;7403496;19;1598;-59
2022/05/28 07:46:22;;;;;;;;;;;;;;;21.63;61.17;100388.78;7401798;19;1333;-60
2022/05/28 07:48:51;;;;;;;;;;;;;;;21.71;61.00;100369.13;7401285;19;1297;-61
2022/05/28 07:51:19;;;;;;;;;;;;;;;21.66;61.29;100363.38;7402790;19;1800;-61
2022/05/28 07:53:48;;;;;;;;;;;;;;;21.56;61.51;100363.50;7404587;19;1846;-60
2022/05/28 07:56:17;;;;;;;;;;;;;;;21.68;61.28;100361.38;7404499;19;1340;-61
2022/05/28 07:58:50;;;;;;;;;;;;;;;21.58;61.74;100366.88;7404107;19;1351;-65
2022/05/28 08:01:22;;;;;;;;;;;;;;;21.76;60.97;100372.16;7403664;19;1626;-65
2022/05/28 08:03:51;;;;;;;;;;;;;;;21.70;61.44;100378.19;7403840;19;1342;-65
2022/05/28 08:06:25;;;;;;;;;;;;;;;21.79;61.29;100396.06;7404397;19;1452;-69
2022/05/28 08:08:54;;;;;;;;;;;;;;;21.88;61.58;100414.94;7404456;19;1298;-65
2022/05/28 08:14:20;;;;;;;;;;;;;;;21.84;61.45;100447.56;7402992;19;1844;-60
2022/05/28 08:16:49;;;;;;;;;;;;;;;21.87;61.62;100426.72;7403727;19;1646;-64
2022/05/28 08:19:17;;;;;;;;;;;;;;;21.99;61.16;100444.25;7402444;19;1344;-64
2022/05/28 08:24:27;;;;;;;;;;;;;;;21.99;61.20;100438.88;7403936;19;1275;-66
2022/05/28 08:26:57;;;;;;;;;;;;;;;21.97;61.44;100440.88;7402301;19;1315;-60
2022/05/28 08:29:28;;;;;;;;;;;;;;;21.96;61.20;100445.41;7404232;19;1340;-65
2022/05/28 08:31:56;;;;;;;;;;;;;;;21.95;61.60;100437.50;7404223;19;1503;-65
2022/05/28 08:34:24;;;;;;;;;;;;;;;21.94;61.77;100442.03;7402665;19;1853;-60
2022/05/28 08:36:53;;;;;;;;;;;;;;;21.96;61.32;100428.41;7405560;19;971;-65
2022/05/28 08:39:21;;;;;;;;;;;;;;;21.99;61.31;100434.31;7404017;19;1323;-60
2022/05/28 08:41:55;;;;;;;;;;;;;;;21.98;61.30;100415.63;7399849;19;1552;-60
2022/05/28 08:44:25;;;;;;;;;;;;;;;21.98;61.49;100413.78;7401280;19;1588;-60
2022/05/28 08:46:56;;;;;;;;;;;;;;;21.93;61.46;100412.59;7403352;19;1598;-61
2022/05/28 08:49:26;;;;;;;;;;;;;;;21.96;61.46;100423.03;7404025;19;1473;-60
2022/05/28 08:51:57;;;;;;;;;;;;;;;21.94;61.75;100419.66;7411997;19;990;-65
2022/05/28 08:54:26;;;;;;;;;;;;;;;21.93;61.54;100408.06;7407629;19;1867;-65
2022/05/28 08:56:57;;;;;;;;;;;;;;;21.90;61.94;100415.59;7409375;19;1530;-60
2022/05/28 08:59:28;;;;;;;;;;;;;;;21.90;61.81;100408.38;7411184;19;1437;-65
2022/05/28 09:02:00;;;;;;;;;;;;;;;21.93;61.78;100428.75;7408659;19;1488;-65
2022/05/28 09:04:30;;;;;;;;;;;;;;;21.95;61.94;100410.59;7409843;19;1218;-60
2022/05/28 09:07:01;;;;;;;;;;;;;;;21.92;61.79;100410.91;7410727;19;1713;-60
2022/05/28 09:09:35;;;;;;;;;;;;;;;22.09;62.41;100417.19;7407821;19;1667;-65
2022/05/28 09:12:05;;;;;;;;;;;;;;;22.01;61.89;100399.16;7410473;19;1548;-61
2022/05/28 09:14:35;;;;;;;;;;;;;;;22.02;61.64;100400.84;7409218;19;1859;-60
2022/05/28 09:17:09;;;;;;;;;;;;;;;22.07;61.85;100371.56;7408004;19;1317;-61
2022/05/28 09:19:39;;;;;;;;;;;;;;;22.09;62.02;100396.47;7409967;19;1618;-65
2022/05/28 09:22:07;;;;;;;;;;;;;;;22.02;62.10;100376.59;7406178;19;1245;-60
2022/05/28 09:24:36;;;;;;;;;;;;;;;22.04;62.04;100358.44;7408830;19;1292;-64
2022/05/28 09:27:07;;;;;;;;;;;;;;;22.01;62.00;100373.06;7407484;19;1220;-65
2022/05/28 09:29:45;;;;;;;;;;;;;;;22.02;62.01;100363.13;7408021;19;1401;-64
2022/05/28 09:32:18;;;;;;;;;;;;;;;22.04;61.95;100374.59;7409211;19;1521;-60
2022/05/28 09:34:53;;;;;;;;;;;;;;;22.07;61.89;100363.50;7406871;19;1861;-60
2022/05/28 09:37:26;;;;;;;;;;;;;;;22.10;62.65;100363.16;7409136;19;1279;-67
2022/05/28 09:40:00;;;;;;;;;;;;;;;22.17;62.63;100358.78;7409503;19;1407;-64
2022/05/28 09:42:34;;;;;;;;;;;;;;;22.21;62.80;100373.59;7407231;19;1229;-61
2022/05/28 09:45:11;;;;;;;;;;;;;;;22.33;63.53;100371.47;7405853;19;1434;-65
2022/05/28 09:47:50;;;;;;;;;;;;;;;22.31;63.62;100351.09;7407996;19;1416;-65
2022/05/28 09:50:23;;;;;;;;;;;;;;;22.31;64.10;100351.94;7402506;19;1528;-67
2022/05/28 09:55:40;;;;;;;;;;;;;;;22.28;64.40;100352.25;7407099;19;1853;-64
2022/05/28 09:58:08;;;;;;;;;;;;;;;22.29;64.46;100369.28;7408436;19;1656;-65
2022/05/28 10:00:36;;;;;;;;;;;;;;;22.26;64.08;100346.19;7407264;19;1737;-74
2022/05/28 10:05:51;;;;;;;;;;;;;;;22.30;64.29;100365.56;7408820;19;1690;-68
2022/05/28 10:08:19;;;;;;;;;;;;;;;22.21;64.50;100351.22;7407829;19;1547;-68
2022/05/28 10:10:55;;;;;;;;;;;;;;;22.14;65.44;100340.25;7407340;19;1697;-68
2022/05/28 10:13:24;;;;;;;;;;;;;;;22.14;65.15;100342.97;7408578;19;1496;-68
2022/05/28 10:15:54;;;;;;;;;;;;;;;22.13;64.60;100349.38;7404927;19;1853;-69
2022/05/28 10:18:28;;;;;;;;;;;;;;;22.12;64.98;100341.44;7407573;19;1138;-69
2022/05/28 10:21:00;;;;;;;;;;;;;;;22.42;64.77;100338.16;7407288;19;1630;-63
2022/05/28 10:23:28;;;;;;;;;;;;;;;22.14;65.43;100332.19;7407394;19;1423;-64
2022/05/28 10:25:57;;;;;;;;;;;;;;;22.05;65.56;100330.50;7406597;19;1520;-64
2022/05/28 10:28:29;;;;;;;;;;;;;;;22.08;65.49;100330.16;7405964;19;1332;-63
2022/05/28 10:30:58;;;;;;;;;;;;;;;22.01;65.82;100323.78;7407403;19;1776;-63
2022/05/28 10:33:31;;;;;;;;;;;;;;;21.98;65.45;100308.78;7407077;19;1572;-63
2022/05/28 10:36:09;;;;;;;;;;;;;;;21.99;65.26;100320.41;7405807;19;1861;-62
2022/05/28 10:38:37;;;;;;;;;;;;;;;21.99;65.02;100312.34;7407387;19;1422;-63
2022/05/28 10:41:17;;;;;;;;;;;;;;;21.95;64.99;100302.91;7407693;19;1507;-62
2022/05/28 10:43:45;;;;;;;;;;;;;;;21.94;64.92;100301.19;7405296;19;1227;-63
2022/05/28 10:46:18;;;;;;;;;;;;;;;21.94;64.76;100299.34;7407407;19;1165;-62
2022/05/28 10:49:02;;;;;;;;;;;;;;;21.98;65.24;100307.94;7404405;19;1383;-62
2022/05/28 10:51:34;;;;;;;;;;;;;;;21.93;64.87;100299.53;7405995;19;1351;-62
2022/05/28 10:54:09;;;;;;;;;;;;;;;21.93;65.06;100300.38;7406370;19;1609;-62
2022/05/28 10:56:48;;;;;;;;;;;;;;;21.93;64.85;100294.16;7405454;19;1896;-62
2022/05/28 10:59:22;;;;;;;;;;;;;;;21.92;64.70;100295.16;7406732;19;1580;-62
2022/05/28 11:01:56;;;;;;;;;;;;;;;21.93;64.73;100292.28;7405162;19;1508;-62
2022/05/28 11:04:31;;;;;;;;;;;;;;;21.92;64.53;100287.06;7405625;19;1559;-63
2022/05/28 11:07:14;;;;;;;;;;;;;;;21.92;64.53;100285.22;7406929;19;1645;-62
2022/05/28 11:09:50;;;;;;;;;;;;;;;21.93;64.56;100275.31;7406092;19;1551;-62
2022/05/28 11:12:37;;;;;;;;;;;;;;;21.95;64.71;100278.66;7404709;19;1524;-62
2022/05/28 11:15:14;;;;;;;;;;;;;;;21.95;64.63;100263.34;7405366;19;1846;-63
2022/05/28 11:17:48;;;;;;;;;;;;;;;21.97;64.59;100271.28;7405455;19;1542;-63
2022/05/28 11:20:26;;;;;;;;;;;;;;;21.95;64.46;100259.81;7405294;19;1626;-63
2022/05/28 11:23:04;;;;;;;;;;;;;;;21.95;64.43;100254.44;7406069;19;1634;-62
2022/05/28 11:25:38;;;;;;;;;;;;;;;21.94;64.46;100263.50;7405207;19;1589;-63
2022/05/28 11:28:14;;;;;;;;;;;;;;;21.93;64.45;100256.47;7405294;19;1638;-62
2022/05/28 11:30:44;;;;;;;;;;;;;;;21.95;64.49;100265.22;7405035;19;1682;-62
2022/05/28 11:33:15;;;;;;;;;;;;;;;21.96;64.43;100243.47;7405029;19;1637;-62
2022/05/28 11:35:49;;;;;;;;;;;;;;;21.95;64.35;100255.28;7402655;19;1857;-62
2022/05/28 11:38:21;;;;;;;;;;;;;;;21.94;64.16;100234.75;7404610;19;1320;-62
2022/05/28 11:40:56;;;;;;;;;;;;;;;21.98;64.27;100241.47;7405883;19;1567;-62
2022/05/28 11:43:27;;;;;;;;;;;;;;;21.97;64.41;100238.97;7405250;19;1333;-62
2022/05/28 11:45:57;;;;;;;;;;;;;;;21.98;64.34;100249.53;7405535;19;1682;-62
2022/05/28 11:51:27;;;;;;;;;;;;;;;21.94;64.26;100237.44;7405395;19;1762;-63
2022/05/28 11:51:29;;;;;;;;;;;;;;;21.96;64.06;100242.66;7405693;19;1469;-62
2022/05/28 11:54:00;;;;;;;;;;;;;;;21.95;64.14;100228.34;7404404;19;1658;-63
2022/05/28 11:56:29;;;;;;;;;;;;;;;21.96;64.15;100218.41;7401671;19;1846;-62
2022/05/28 11:58:59;;;;;;;;;;;;;;;21.95;64.18;100230.22;7403270;19;1673;-62
2022/05/28 12:01:29;;;;;;;;;;;;;;;22.01;64.38;100218.78;7399906;19;1574;-61
2022/05/28 12:03:58;;;;;;;;;;;;;;;21.99;64.47;100218.94;7403149;19;1550;-66
2022/05/28 12:06:34;;;;;;;;;;;;;;;22.04;64.78;100221.09;7405862;19;1567;-62
2022/05/28 12:09:07;;;;;;;;;;;;;;;22.07;64.83;100222.66;7403676;19;1614;-66
2022/05/28 12:11:39;;;;;;;;;;;;;;;22.05;65.26;100217.41;7405378;19;1630;-63
2022/05/28 12:14:09;;;;;;;;;;;;;;;22.24;65.07;100208.16;7403274;19;1185;-64
2022/05/28 12:16:39;;;;;;;;;;;;;;;22.26;65.04;100198.06;7402618;19;1849;-62
2022/05/28 12:19:08;;;;;;;;;;;;;;;22.42;66.63;100208.81;7402657;19;1210;-64
2022/05/28 12:21:40;;;;;;;;;;;;;;;22.44;65.32;100187.06;7402025;19;1372;-62
2022/05/28 12:24:11;;;;;;;;;;;;;;;22.40;65.53;100183.91;7405533;19;1422;-62
2022/05/28 12:26:57;;;;;;;;;;;;;;;22.41;65.09;100187.44;7410685;19;1250;-67
2022/05/28 12:29:32;;;;;;;;;;;;;;;22.32;65.77;100183.06;7407751;19;1429;-67
2022/05/28 12:32:11;;;;;;;;;;;;;;;22.25;65.49;100169.47;7411549;19;1327;-66
2022/05/28 12:34:40;;;;;;;;;;;;;;;22.24;66.66;100182.09;7410038;19;1329;-60
2022/05/28 12:37:17;;;;;;;;;;;;;;;22.36;66.01;100171.81;7322813;19;14455;-61
2022/05/28 12:39:47;;;;;;;;;;;;;;;22.23;66.29;100161.50;7410208;19;1279;-61
2022/05/28 12:42:23;;;;;;;;;;;;;;;22.30;66.05;100177.00;7409849;19;1403;-63
2022/05/28 12:44:51;;;;;;;;;;;;;;;22.21;66.49;100163.53;7410361;19;1371;-60
2022/05/28 12:47:30;;;;;;;;;;;;;;;22.31;66.27;100170.63;7409606;19;1398;-62
2022/05/28 12:50:03;;;;;;;;;;;;;;;22.26;66.02;100148.75;7409026;19;1388;-60
2022/05/28 12:52:39;;;;;;;;;;;;;;;22.23;66.16;100158.81;7409986;19;1367;-61
2022/05/28 12:55:20;;;;;;;;;;;;;;;22.15;66.16;100163.38;7407353;19;1213;-59
2022/05/28 12:58:00;;;;;;;;;;;;;;;22.17;65.94;100154.13;7408659;19;1384;-59
2022/05/28 13:00:30;;;;;;;;;;;;;;;22.15;66.03;100142.69;7409408;19;1438;-59
2022/05/28 13:03:00;;;;;;;;;;;;;;;22.17;65.78;100140.66;7407955;19;1516;-59
2022/05/28 13:05:32;;;;;;;;;;;;;;;22.14;65.70;100127.53;7408510;19;1291;-59
2022/05/28 13:08:07;;;;;;;;;;;;;;;22.14;65.50;100124.81;7410741;19;1629;-59
2022/05/28 13:10:35;;;;;;;;;;;;;;;22.22;65.58;100138.31;7409521;19;1372;-59
2022/05/28 13:13:08;;;;;;;;;;;;;;;22.16;65.55;100114.75;7410125;19;1262;-59
2022/05/28 13:15:57;;;;;;;;;;;;;;;22.18;65.39;100119.94;7408684;19;1850;-60